createdAt,value
2018-12-30T00:02:18.701Z,24.10
2018-12-30T00:04:49.744Z,20.43
2018-12-30T00:07:20.860Z,20.07
2018-12-30T00:09:51.648Z,19.63
2018-12-30T00:12:22.410Z,21.10
2018-12-30T00:14:53.413Z,20.47
2018-12-30T00:17:24.353Z,21.43
2018-12-30T00:19:56.405Z,22.73
2018-12-30T00:22:27.158Z,22.13
2018-12-30T00:24:57.992Z,19.50
2018-12-30T00:27:29.223Z,20.57
2018-12-30T00:30:00.252Z,22.63
2018-12-30T00:32:30.999Z,22.67
2018-12-30T00:35:02.341Z,23.07
2018-12-30T00:37:34.309Z,23.03
2018-12-30T00:40:05.160Z,22.77
2018-12-30T00:42:35.920Z,22.23
2018-12-30T00:45:07.073Z,19.50
2018-12-30T00:47:37.844Z,22.13
2018-12-30T00:50:08.621Z,19.50
2018-12-30T00:52:39.451Z,19.07
2018-12-30T00:55:11.064Z,21.97
2018-12-30T00:57:41.931Z,20.27
2018-12-30T01:00:13.024Z,21.90
2018-12-30T01:02:44.266Z,19.47
2018-12-30T01:05:15.173Z,20.87
2018-12-30T01:07:46.010Z,21.43
2018-12-30T01:10:16.761Z,20.43
2018-12-30T01:12:47.784Z,20.23
2018-12-30T01:15:18.763Z,20.17
2018-12-30T01:17:49.745Z,20.43
2018-12-30T01:20:20.571Z,21.03
2018-12-30T01:22:51.647Z,18.70
2018-12-30T01:25:22.402Z,23.47
2018-12-30T01:27:53.155Z,18.47
2018-12-30T01:30:24.143Z,20.23
2018-12-30T01:32:55.135Z,27.40
2018-12-30T01:35:25.911Z,29.83
2018-12-30T01:37:57.695Z,25.37
2018-12-30T01:40:28.686Z,17.83
2018-12-30T01:42:59.511Z,17.47
2018-12-30T01:45:30.597Z,18.47
2018-12-30T01:48:01.347Z,16.90
2018-12-30T01:50:32.110Z,20.23
2018-12-30T01:53:03.172Z,24.33
2018-12-30T01:55:34.258Z,15.73
2018-12-30T01:58:05.237Z,14.07
2018-12-30T02:00:36.006Z,20.50
2018-12-30T02:03:07.516Z,13.70
2018-12-30T02:05:38.695Z,15.07
2018-12-30T02:08:09.480Z,15.70
2018-12-30T02:10:40.531Z,15.30
2018-12-30T02:13:11.442Z,17.10
2018-12-30T02:15:42.912Z,16.20
2018-12-30T02:18:13.888Z,16.43
2018-12-30T02:20:44.859Z,16.43
2018-12-30T02:23:17.704Z,15.83
2018-12-30T02:25:48.987Z,15.87
2018-12-30T02:28:20.067Z,19.07
2018-12-30T02:30:51.110Z,17.97
2018-12-30T02:33:22.016Z,15.80
2018-12-30T02:35:53.072Z,18.57
2018-12-30T02:38:24.227Z,18.23
2018-12-30T02:40:55.252Z,16.77
2018-12-30T02:43:26.251Z,16.90
2018-12-30T02:45:56.989Z,18.67
2018-12-30T02:48:28.308Z,17.13
2018-12-30T02:50:59.574Z,16.87
2018-12-30T02:53:30.584Z,17.30
2018-12-30T02:56:01.643Z,16.80
2018-12-30T02:58:32.666Z,16.93
2018-12-30T03:01:03.932Z,16.57
2018-12-30T03:03:35.015Z,18.53
2018-12-30T03:06:05.763Z,16.97
2018-12-30T03:08:36.518Z,16.40
2018-12-30T03:11:08.334Z,18.23
2018-12-30T03:13:39.172Z,16.20
2018-12-30T03:16:10.561Z,14.67
2018-12-30T03:18:41.533Z,18.00
2018-12-30T03:21:12.278Z,17.70
2018-12-30T03:23:43.334Z,16.03
2018-12-30T03:26:14.818Z,16.77
2018-12-30T03:28:46.097Z,19.30
2018-12-30T03:31:16.841Z,18.97
2018-12-30T03:33:47.604Z,18.53
2018-12-30T03:36:18.663Z,16.63
2018-12-30T03:38:49.770Z,15.80
2018-12-30T03:41:20.887Z,18.47
2018-12-30T03:43:51.920Z,15.23
2018-12-30T03:46:22.667Z,16.10
2018-12-30T03:48:53.432Z,18.83
2018-12-30T03:51:24.491Z,17.37
2018-12-30T03:53:55.569Z,17.30
2018-12-30T03:56:26.537Z,16.03
2018-12-30T03:58:58.079Z,15.73
2018-12-30T04:01:28.833Z,17.93
2018-12-30T04:03:59.591Z,20.97
2018-12-30T04:06:30.635Z,16.87
2018-12-30T04:09:01.391Z,14.80
2018-12-30T04:11:32.420Z,18.17
2018-12-30T04:14:03.271Z,17.70
2018-12-30T04:16:34.094Z,16.87
2018-12-30T04:19:04.944Z,16.47
2018-12-30T04:21:35.923Z,15.37
2018-12-30T04:24:06.679Z,16.80
2018-12-30T04:26:37.437Z,14.63
2018-12-30T04:29:08.191Z,15.43
2018-12-30T04:31:39.174Z,16.97
2018-12-30T04:34:09.949Z,19.60
2018-12-30T04:36:41.857Z,14.67
2018-12-30T04:39:12.909Z,16.63
2018-12-30T04:41:44.432Z,13.13
2018-12-30T04:44:15.176Z,15.43
2018-12-30T04:46:46.292Z,14.37
2018-12-30T04:49:17.520Z,13.47
2018-12-30T04:51:48.333Z,16.07
2018-12-30T04:54:19.014Z,13.03
2018-12-30T04:56:49.802Z,15.73
2018-12-30T04:59:20.792Z,15.57
2018-12-30T05:01:51.537Z,14.57
2018-12-30T05:04:22.370Z,12.70
2018-12-30T05:06:53.109Z,15.87
2018-12-30T05:09:23.892Z,19.60
2018-12-30T05:11:54.866Z,13.97
2018-12-30T05:14:26.205Z,20.53
2018-12-30T05:16:56.955Z,15.23
2018-12-30T05:19:27.958Z,13.23
2018-12-30T05:21:58.740Z,16.37
2018-12-30T05:24:29.485Z,14.87
2018-12-30T05:27:00.332Z,17.77
2018-12-30T05:29:31.383Z,13.70
2018-12-30T05:32:02.414Z,14.70
2018-12-30T05:34:33.473Z,16.70
2018-12-30T05:37:04.286Z,15.10
2018-12-30T05:39:35.586Z,16.63
2018-12-30T05:42:06.391Z,16.40
2018-12-30T05:44:37.182Z,16.70
2018-12-30T05:47:33.122Z,18.97
2018-12-30T05:50:04.400Z,14.77
2018-12-30T05:52:41.867Z,18.17
2018-12-30T05:55:07.806Z,15.07
2018-12-30T05:57:38.537Z,12.73
2018-12-30T06:00:11.902Z,14.27
2018-12-30T06:02:47.289Z,13.13
2018-12-30T06:05:19.069Z,16.10
2018-12-30T06:07:50.043Z,12.17
2018-12-30T06:10:20.852Z,14.63
2018-12-30T06:12:51.624Z,16.67
2018-12-30T06:15:22.453Z,15.50
2018-12-30T06:17:53.526Z,13.20
2018-12-30T06:20:24.276Z,15.53
2018-12-30T06:22:55.121Z,14.47
2018-12-30T06:25:26.128Z,13.20
2018-12-30T06:27:56.858Z,13.23
2018-12-30T06:30:28.230Z,16.00
2018-12-30T06:32:58.969Z,16.33
2018-12-30T06:35:30.206Z,15.23
2018-12-30T06:38:01.470Z,14.27
2018-12-30T06:40:32.301Z,13.07
2018-12-30T06:43:03.058Z,13.90
2018-12-30T06:45:33.827Z,14.23
2018-12-30T06:48:04.651Z,14.23
2018-12-30T06:50:35.885Z,13.47
2018-12-30T06:53:06.700Z,15.30
2018-12-30T06:55:37.465Z,12.00
2018-12-30T06:58:08.234Z,12.40
2018-12-30T07:00:39.236Z,14.40
2018-12-30T07:03:10.051Z,12.20
2018-12-30T07:05:41.432Z,15.00
2018-12-30T07:08:12.480Z,16.17
2018-12-30T07:13:44.686Z,14.67
2018-12-30T07:16:15.961Z,13.30
2018-12-30T07:18:47.186Z,14.77
2018-12-30T07:21:17.989Z,14.17
2018-12-30T07:23:48.732Z,17.63
2018-12-30T07:26:19.602Z,11.00
2018-12-30T07:28:50.634Z,15.53
2018-12-30T07:31:21.491Z,16.87
2018-12-30T07:33:52.455Z,16.17
2018-12-30T07:36:23.218Z,15.37
2018-12-30T07:38:54.192Z,16.77
2018-12-30T07:41:25.096Z,16.73
2018-12-30T07:43:56.007Z,20.57
2018-12-30T07:46:26.829Z,19.93
2018-12-30T07:48:58.394Z,17.50
2018-12-30T07:51:48.401Z,20.20
2018-12-30T07:54:58.101Z,16.70
2018-12-30T07:57:48.089Z,19.17
2018-12-30T08:00:38.351Z,19.37
2018-12-30T08:03:10.960Z,17.50
2018-12-30T08:05:41.959Z,19.83
2018-12-30T08:08:13.799Z,20.03
2018-12-30T08:10:44.820Z,16.37
2018-12-30T08:13:15.566Z,18.67
2018-12-30T08:15:46.325Z,18.53
2018-12-30T08:18:17.087Z,19.83
2018-12-30T08:20:48.013Z,21.83
2018-12-30T08:23:21.641Z,16.83
2018-12-30T08:25:51.451Z,19.93
2018-12-30T08:28:25.168Z,17.87
2018-12-30T08:30:54.915Z,19.80
2018-12-30T08:33:25.887Z,19.20
2018-12-30T08:35:56.903Z,22.53
2018-12-30T08:38:27.647Z,19.73
2018-12-30T08:40:58.414Z,18.43
2018-12-30T08:43:29.398Z,15.67
2018-12-30T08:46:00.743Z,20.30
2018-12-30T08:48:32.047Z,19.00
2018-12-30T08:51:02.958Z,18.03
2018-12-30T08:53:33.954Z,19.20
2018-12-30T08:56:04.750Z,21.63
2018-12-30T08:58:35.741Z,21.13
2018-12-30T09:01:06.644Z,20.03
2018-12-30T09:03:37.403Z,20.23
2018-12-30T09:06:08.178Z,24.80
2018-12-30T09:08:39.341Z,24.17
2018-12-30T09:11:10.324Z,20.93
2018-12-30T09:13:41.443Z,20.70
2018-12-30T09:16:12.507Z,20.40
2018-12-30T09:18:43.546Z,24.67
2018-12-30T09:21:14.432Z,20.23
2018-12-30T09:23:45.262Z,18.87
2018-12-30T09:26:16.112Z,19.13
2018-12-30T09:28:47.050Z,20.23
2018-12-30T09:31:17.879Z,20.10
2018-12-30T09:33:48.927Z,17.20
2018-12-30T09:36:19.997Z,18.30
2018-12-30T09:38:51.215Z,20.70
2018-12-30T09:41:22.343Z,24.03
2018-12-30T09:43:53.399Z,22.50
2018-12-30T09:46:24.673Z,20.17
2018-12-30T09:48:55.455Z,23.03
2018-12-30T09:51:26.283Z,21.70
2018-12-30T09:54:41.199Z,22.77
2018-12-30T09:57:14.255Z,20.70
2018-12-30T09:59:45.560Z,22.83
2018-12-30T10:02:17.974Z,20.10
2018-12-30T10:04:48.716Z,23.77
2018-12-30T10:07:32.203Z,19.47
2018-12-30T10:10:15.222Z,20.07
2018-12-30T10:12:57.734Z,19.63
2018-12-30T10:15:35.107Z,23.30
2018-12-30T10:18:06.652Z,17.73
2018-12-30T10:20:37.494Z,22.20
2018-12-30T10:23:08.484Z,18.40
2018-12-30T10:25:39.327Z,17.70
2018-12-30T10:28:10.085Z,19.87
2018-12-30T10:30:41.316Z,18.47
2018-12-30T10:33:12.076Z,23.00
2018-12-30T10:35:42.903Z,20.90
2018-12-30T10:38:14.184Z,20.47
2018-12-30T10:40:45.154Z,18.23
2018-12-30T10:43:17.468Z,14.23
2018-12-30T10:45:48.420Z,15.97
2018-12-30T10:48:19.753Z,18.47
2018-12-30T10:50:50.489Z,16.80
2018-12-30T10:53:21.313Z,16.80
2018-12-30T10:55:52.147Z,18.50
2018-12-30T10:58:23.126Z,17.70
2018-12-30T11:00:54.411Z,17.97
2018-12-30T11:03:25.925Z,17.77
2018-12-30T11:05:56.701Z,19.53
2018-12-30T11:08:27.710Z,19.93
2018-12-30T11:10:58.669Z,20.83
2018-12-30T11:13:29.430Z,17.20
2018-12-30T11:16:00.546Z,18.00
2018-12-30T11:18:31.549Z,17.97
2018-12-30T11:21:02.595Z,15.73
2018-12-30T11:23:34.399Z,14.67
2018-12-30T11:26:05.146Z,19.97
2018-12-30T11:28:35.922Z,19.37
2018-12-30T11:31:06.682Z,17.80
2018-12-30T11:33:37.443Z,19.73
2018-12-30T11:36:08.470Z,13.73
2018-12-30T11:38:39.511Z,16.13
2018-12-30T11:41:10.553Z,16.37
2018-12-30T11:44:00.516Z,18.23
2018-12-30T11:46:43.071Z,18.53
2018-12-30T11:49:13.897Z,17.67
2018-12-30T11:51:44.642Z,12.07
2018-12-30T11:54:16.632Z,14.83
2018-12-30T11:56:47.776Z,11.63
2018-12-30T11:59:18.673Z,15.27
2018-12-30T12:01:49.423Z,12.97
2018-12-30T12:04:20.415Z,15.03
2018-12-30T12:06:51.372Z,12.83
2018-12-30T12:09:22.126Z,14.17
2018-12-30T12:11:52.866Z,19.07
2018-12-30T12:14:23.860Z,15.90
2018-12-30T12:16:54.731Z,16.67
2018-12-30T12:19:25.764Z,20.37
2018-12-30T12:21:56.540Z,17.80
2018-12-30T12:24:27.517Z,15.27
2018-12-30T12:26:58.490Z,16.10
2018-12-30T12:29:29.525Z,17.50
2018-12-30T12:32:00.486Z,16.20
2018-12-30T12:34:31.250Z,13.93
2018-12-30T12:37:01.988Z,15.80
2018-12-30T12:39:32.754Z,17.50
2018-12-30T12:42:03.799Z,17.13
2018-12-30T12:44:34.550Z,13.97
2018-12-30T12:47:05.643Z,15.23
2018-12-30T12:49:48.902Z,16.83
2018-12-30T12:52:20.624Z,27.13
2018-12-30T12:55:10.592Z,23.50
2018-12-30T12:57:41.612Z,23.70
2018-12-30T13:00:12.947Z,36.20
2018-12-30T13:08:46.928Z,25.33
2018-12-30T13:11:37.483Z,34.47
2018-12-30T13:14:08.309Z,20.20
2018-12-30T13:16:39.059Z,20.97
2018-12-30T13:19:09.832Z,23.63
2018-12-30T13:21:40.870Z,39.30
2018-12-30T13:24:11.635Z,25.60
2018-12-30T13:26:42.376Z,22.30
2018-12-30T13:29:13.372Z,19.50
2018-12-30T13:31:44.684Z,12.00
2018-12-30T13:34:15.920Z,16.70
2018-12-30T13:36:47.184Z,15.73
2018-12-30T13:39:17.937Z,17.93
2018-12-30T13:41:48.688Z,16.47
2018-12-30T13:47:34.226Z,19.40
2018-12-30T13:50:35.816Z,21.67
2018-12-30T13:53:06.557Z,17.73
2018-12-30T13:55:37.536Z,15.87
2018-12-30T13:58:08.285Z,20.13
2018-12-30T14:00:40.074Z,18.13
2018-12-30T14:03:11.059Z,19.00
2018-12-30T14:05:42.040Z,20.00
2018-12-30T14:08:12.804Z,16.53
2018-12-30T14:10:43.917Z,16.00
2018-12-30T14:13:40.226Z,19.13
2018-12-30T14:16:11.273Z,22.30
2018-12-30T14:21:51.470Z,17.60
2018-12-30T14:24:22.476Z,19.30
2018-12-30T14:26:59.724Z,18.27
2018-12-30T14:29:25.681Z,17.70
2018-12-30T14:31:56.662Z,13.57
2018-12-30T14:34:27.908Z,14.47
2018-12-30T14:36:58.665Z,16.67
2018-12-30T14:39:29.718Z,14.00
2018-12-30T14:42:00.466Z,15.97
2018-12-30T14:44:31.466Z,14.57
2018-12-30T14:47:03.168Z,15.13
2018-12-30T14:49:33.937Z,12.47
2018-12-30T14:52:04.789Z,12.27
2018-12-30T14:54:35.764Z,15.70
2018-12-30T14:57:06.723Z,13.30
2018-12-30T14:59:37.747Z,13.37
2018-12-30T15:02:08.494Z,16.20
2018-12-30T15:04:39.502Z,15.93
2018-12-30T15:07:10.323Z,15.63
2018-12-30T15:09:41.361Z,23.27
2018-12-30T15:12:12.097Z,15.43
2018-12-30T15:14:43.578Z,19.87
2018-12-30T15:17:14.663Z,23.97
2018-12-30T15:19:45.410Z,21.80
2018-12-30T15:22:16.411Z,20.43
2018-12-30T15:24:48.745Z,17.20
2018-12-30T15:27:19.735Z,20.03
2018-12-30T15:29:50.701Z,14.93
2018-12-30T15:32:22.457Z,18.10
2018-12-30T15:34:54.062Z,17.33
2018-12-30T15:37:24.850Z,16.37
2018-12-30T15:39:55.922Z,16.63
2018-12-30T15:42:27.333Z,19.87
2018-12-30T15:44:58.315Z,24.73
2018-12-30T15:47:29.074Z,19.80
2018-12-30T15:50:00.261Z,13.73
2018-12-30T15:52:30.983Z,15.50
2018-12-30T15:55:02.686Z,17.87
2018-12-30T15:57:33.830Z,16.97
2018-12-30T16:03:20.088Z,20.23
2018-12-30T16:05:57.585Z,19.07
2018-12-30T16:08:23.567Z,18.53
2018-12-30T16:10:54.707Z,21.50
2018-12-30T16:13:25.981Z,18.50
2018-12-30T16:15:57.031Z,22.00
2018-12-30T16:18:27.971Z,16.87
2018-12-30T16:20:58.782Z,27.23
2018-12-30T16:23:29.779Z,22.57
2018-12-30T16:26:00.799Z,24.17
2018-12-30T16:28:31.563Z,21.47
2018-12-30T16:31:02.383Z,17.23
2018-12-30T16:33:33.622Z,19.57
2018-12-30T16:36:04.357Z,19.43
2018-12-30T16:38:35.414Z,17.93
2018-12-30T16:41:06.165Z,19.90
2018-12-30T16:43:36.989Z,21.27
2018-12-30T16:46:08.114Z,16.33
2018-12-30T16:48:38.884Z,29.13
2018-12-30T16:51:09.851Z,17.77
2018-12-30T16:53:40.651Z,29.43
2018-12-30T16:56:11.638Z,27.70
2018-12-30T16:58:42.674Z,26.70
2018-12-30T17:01:13.427Z,21.93
2018-12-30T17:03:44.259Z,18.77
2018-12-30T17:06:15.319Z,18.83
2018-12-30T17:08:46.310Z,18.60
2018-12-30T17:11:17.128Z,19.17
2018-12-30T17:13:48.359Z,17.60
2018-12-30T17:16:19.344Z,19.30
2018-12-30T17:18:55.915Z,22.60
2018-12-30T17:21:22.569Z,24.20
2018-12-30T17:23:53.328Z,20.07
2018-12-30T17:26:24.080Z,16.47
2018-12-30T17:28:54.911Z,21.00
2018-12-30T17:31:25.711Z,26.00
2018-12-30T17:33:56.467Z,28.27
2018-12-30T17:36:28.104Z,21.77
2018-12-30T17:38:59.382Z,23.70
2018-12-30T17:41:30.367Z,23.87
2018-12-30T17:44:01.263Z,19.57
2018-12-30T17:46:32.271Z,22.50
2018-12-30T17:49:03.031Z,26.13
2018-12-30T17:51:33.778Z,27.00
2018-12-30T17:54:04.766Z,27.17
2018-12-30T17:56:35.580Z,24.90
2018-12-30T17:59:06.334Z,26.53
2018-12-30T18:01:37.552Z,23.33
2018-12-30T18:04:08.538Z,24.53
2018-12-30T18:06:39.286Z,35.17
2018-12-30T18:09:10.128Z,27.63
2018-12-30T18:14:30.691Z,60.23
2018-12-30T18:17:01.437Z,29.10
2018-12-30T18:19:32.215Z,27.53
2018-12-30T18:22:02.962Z,24.70
2018-12-30T18:24:33.723Z,35.83
2018-12-30T18:27:04.777Z,30.50
2018-12-30T18:29:36.055Z,37.83
2018-12-30T18:32:07.111Z,28.93
2018-12-30T18:34:57.459Z,33.17
2018-12-30T18:37:28.497Z,27.70
2018-12-30T18:39:59.541Z,23.40
2018-12-30T18:42:30.535Z,25.27
2018-12-30T18:45:40.166Z,24.67
2018-12-30T18:48:11.225Z,24.07
2018-12-30T18:50:42.016Z,28.97
2018-12-30T18:53:13.105Z,27.53
2018-12-30T18:55:44.157Z,27.73
2018-12-30T18:58:14.949Z,30.57
2018-12-30T19:01:04.979Z,26.80
2018-12-30T19:04:14.687Z,34.10
2018-12-30T19:06:45.472Z,26.37
2018-12-30T19:09:35.630Z,29.83
2018-12-30T19:12:25.779Z,25.77
2018-12-30T19:15:15.624Z,30.00
2018-12-30T19:18:07.362Z,33.83
2018-12-30T19:23:41.224Z,34.50
2018-12-30T19:26:37.586Z,52.03
2018-12-30T19:29:20.515Z,30.73
2018-12-30T19:31:51.283Z,33.73
2018-12-30T19:34:22.049Z,27.53
2018-12-30T19:36:52.793Z,29.57
2018-12-30T19:39:23.562Z,32.53
2018-12-30T19:41:54.614Z,33.73
2018-12-30T19:44:25.930Z,32.77
2018-12-30T19:46:56.670Z,34.63
2018-12-30T19:49:27.530Z,34.23
2018-12-30T19:51:58.806Z,35.80
2018-12-30T19:54:30.036Z,30.60
2018-12-30T19:57:01.099Z,45.10
2018-12-30T19:59:32.096Z,33.10
2018-12-30T20:02:02.846Z,35.70
2018-12-30T20:04:40.505Z,39.13
2018-12-30T20:07:45.123Z,34.87
2018-12-30T20:10:15.900Z,34.27
2018-12-30T20:12:46.894Z,33.50
2018-12-30T20:15:17.939Z,31.57
2018-12-30T20:17:48.691Z,41.40
2018-12-30T20:20:19.457Z,43.20
2018-12-30T20:22:50.491Z,41.10
2018-12-30T20:25:21.493Z,39.53
2018-12-30T20:27:52.474Z,39.60
2018-12-30T20:30:23.446Z,40.07
2018-12-30T20:32:54.197Z,36.23
2018-12-30T20:35:25.183Z,36.40
2018-12-30T20:37:56.170Z,41.03
2018-12-30T20:40:26.930Z,42.60
2018-12-30T20:42:57.899Z,38.23
2018-12-30T20:45:28.915Z,36.30
2018-12-30T20:48:20.944Z,36.07
2018-12-30T20:50:51.942Z,49.30
2018-12-30T20:53:34.607Z,39.67
2018-12-30T20:56:24.722Z,36.60
2018-12-30T20:58:55.949Z,44.93
2018-12-30T21:01:26.782Z,45.20
2018-12-30T21:03:58.504Z,36.70
2018-12-30T21:06:29.495Z,46.40
2018-12-30T21:09:00.247Z,42.43
2018-12-30T21:11:31.260Z,48.10
2018-12-30T21:14:03.102Z,43.33
2018-12-30T21:16:34.090Z,49.03
2018-12-30T21:19:05.059Z,52.10
2018-12-30T21:21:35.819Z,39.87
2018-12-30T21:24:06.818Z,47.37
2018-12-30T21:26:45.195Z,46.30
2018-12-30T21:29:10.496Z,52.00
2018-12-30T21:31:41.482Z,57.33
2018-12-30T21:34:12.619Z,233.97
2018-12-30T21:36:43.680Z,58.33
2018-12-30T21:39:14.426Z,58.83
2018-12-30T21:41:45.436Z,83.80
2018-12-30T21:44:16.418Z,45.60
2018-12-30T21:46:47.443Z,44.20
2018-12-30T21:49:18.482Z,48.27
2018-12-30T21:51:49.477Z,44.93
2018-12-30T21:54:20.459Z,49.80
2018-12-30T21:56:54.916Z,57.63
2018-12-30T21:59:26.243Z,56.30
2018-12-30T22:01:57.336Z,54.73
2018-12-30T22:04:28.367Z,53.80
2018-12-30T22:06:59.365Z,53.73
2018-12-30T22:09:30.115Z,48.37
2018-12-30T22:12:00.895Z,53.40
2018-12-30T22:14:31.685Z,55.00
2018-12-30T22:17:02.795Z,62.20
2018-12-30T22:19:33.549Z,52.00
2018-12-30T22:22:04.319Z,51.67
2018-12-30T22:24:35.110Z,56.27
2018-12-30T22:27:06.063Z,49.27
2018-12-30T22:29:36.890Z,47.83
2018-12-30T22:32:07.589Z,52.40
2018-12-30T22:34:38.344Z,49.57
2018-12-30T22:37:09.236Z,51.97
2018-12-30T22:39:40.207Z,46.10
2018-12-30T22:42:10.980Z,46.23
2018-12-30T22:44:41.979Z,51.67
2018-12-30T22:47:12.752Z,53.27
2018-12-30T22:49:43.573Z,56.17
2018-12-30T22:52:14.345Z,52.23
2018-12-30T22:54:45.576Z,48.73
2018-12-30T22:57:16.345Z,52.83
2018-12-30T22:59:47.990Z,52.90
2018-12-30T23:02:18.988Z,54.67
2018-12-30T23:04:49.811Z,43.63
2018-12-30T23:07:20.816Z,45.27
2018-12-30T23:09:51.572Z,46.70
2018-12-30T23:12:22.351Z,50.13
2018-12-30T23:14:53.100Z,45.40
2018-12-30T23:17:23.916Z,47.60
2018-12-30T23:19:54.679Z,45.67
2018-12-30T23:22:25.464Z,47.03
2018-12-30T23:24:56.624Z,50.43
2018-12-30T23:27:27.465Z,49.33
2018-12-30T23:29:58.443Z,46.40
2018-12-30T23:32:29.231Z,45.07
2018-12-30T23:34:59.960Z,43.60
2018-12-30T23:37:30.962Z,46.23
2018-12-30T23:40:02.309Z,42.27
2018-12-30T23:42:33.075Z,45.03
2018-12-30T23:45:04.301Z,42.87
2018-12-30T23:47:35.320Z,46.20
2018-12-30T23:50:06.177Z,43.87
2018-12-30T23:52:36.948Z,44.53
2018-12-30T23:55:07.995Z,40.67
2018-12-30T23:57:39.000Z,46.00
